DLH9PK EDDP-EBBR
Flight info
| Callsign | DLH9PK |
|---|---|
| Flight time | 0h 53m |
| Altitude | 32000 |
| Route | ORTAG5Q ORTAG Q230 KUMER DCT WRB DCT ABAMI Z717 NEREL T855 BATTY |
| Aircraft | A20N/M-SDE2E3FGHIRWXY/LB1 |
Departure
| Time | 2026-05-07 17:50 |
|---|---|
| Airport | Leipzig/Halle Airport (EDDP) |
Arrival
| Time | 2026-05-07 18:44 |
|---|---|
| Airport | Brussels Airport (EBBR) |
| Time | Latitude | Longitude | Altitude | Speed | Heading |
|---|---|---|---|---|---|
| 2026-05-07 17:26 | 51.41976 | 12.21570 | 469 ft | 0 kts | 15° |
| 2026-05-07 17:41 | 51.41972 | 12.21568 | 469 ft | 2 kts | 15° |
| 2026-05-07 17:41 | 51.41958 | 12.21562 | 469 ft | 2 kts | 15° |
| 2026-05-07 17:41 | 51.41947 | 12.21557 | 469 ft | 0 kts | 15° |
| 2026-05-07 17:41 | 51.41933 | 12.21552 | 469 ft | 2 kts | 1° |
| 2026-05-07 17:42 | 51.41919 | 12.21554 | 469 ft | 2 kts | 347° |
| 2026-05-07 17:42 | 51.41904 | 12.21562 | 469 ft | 2 kts | 332° |
| 2026-05-07 17:42 | 51.41892 | 12.21576 | 469 ft | 2 kts | 317° |
| 2026-05-07 17:42 | 51.41882 | 12.21594 | 469 ft | 2 kts | 302° |
| 2026-05-07 17:43 | 51.41876 | 12.21614 | 469 ft | 1 kts | 288° |
| 2026-05-07 17:43 | 51.41874 | 12.21624 | 469 ft | 1 kts | 284° |
| 2026-05-07 17:43 | 51.41874 | 12.21626 | 469 ft | 0 kts | 284° |
| 2026-05-07 17:45 | 51.41876 | 12.21611 | 469 ft | 4 kts | 284° |
| 2026-05-07 17:46 | 51.41891 | 12.21522 | 469 ft | 12 kts | 285° |
| 2026-05-07 17:46 | 51.41921 | 12.21353 | 469 ft | 18 kts | 286° |
| 2026-05-07 17:46 | 51.41956 | 12.21150 | 469 ft | 19 kts | 284° |
| 2026-05-07 17:46 | 51.41987 | 12.20971 | 469 ft | 12 kts | 291° |
| 2026-05-07 17:47 | 51.42061 | 12.20924 | 469 ft | 13 kts | 9° |
| 2026-05-07 17:47 | 51.42153 | 12.20963 | 469 ft | 14 kts | 14° |
| 2026-05-07 17:47 | 51.42260 | 12.21008 | 469 ft | 17 kts | 15° |
| 2026-05-07 17:47 | 51.42382 | 12.21064 | 469 ft | 19 kts | 15° |
| 2026-05-07 17:48 | 51.42518 | 12.21122 | 469 ft | 21 kts | 14° |
| 2026-05-07 17:48 | 51.42661 | 12.21184 | 469 ft | 15 kts | 15° |
| 2026-05-07 17:48 | 51.42769 | 12.21232 | 469 ft | 17 kts | 15° |
| 2026-05-07 17:48 | 51.42889 | 12.21295 | 469 ft | 19 kts | 35° |
| 2026-05-07 17:49 | 51.42990 | 12.21445 | 469 ft | 20 kts | 45° |
| 2026-05-07 17:49 | 51.43099 | 12.21614 | 469 ft | 20 kts | 48° |
| 2026-05-07 17:49 | 51.43133 | 12.21762 | 469 ft | 6 kts | 87° |
| 2026-05-07 17:49 | 51.43133 | 12.21791 | 469 ft | 9 kts | 87° |
| 2026-05-07 17:50 | 51.43161 | 12.22332 | 469 ft | 90 kts | 84° |
| 2026-05-07 17:50 | 51.43230 | 12.23722 | 512 ft | 152 kts | 82° |
| 2026-05-07 17:50 | 51.43395 | 12.25327 | 1220 ft | 148 kts | 62° |
| 2026-05-07 17:50 | 51.44136 | 12.26335 | 1875 ft | 148 kts | 15° |
| 2026-05-07 17:51 | 51.45146 | 12.26655 | 2526 ft | 155 kts | 8° |
| 2026-05-07 17:51 | 51.46256 | 12.26933 | 3018 ft | 171 kts | 9° |
| 2026-05-07 17:51 | 51.47483 | 12.27299 | 3535 ft | 188 kts | 11° |
| 2026-05-07 17:51 | 51.48807 | 12.27755 | 4064 ft | 205 kts | 12° |
| 2026-05-07 17:52 | 51.50261 | 12.28284 | 4571 ft | 226 kts | 10° |
| 2026-05-07 17:52 | 51.51788 | 12.28148 | 5586 ft | 224 kts | 340° |
| 2026-05-07 17:52 | 51.53126 | 12.27023 | 6604 ft | 223 kts | 329° |
| 2026-05-07 17:52 | 51.54416 | 12.25645 | 7462 ft | 227 kts | 328° |
| 2026-05-07 17:53 | 51.55725 | 12.24235 | 8311 ft | 231 kts | 326° |
| 2026-05-07 17:53 | 51.56813 | 12.22280 | 8897 ft | 250 kts | 294° |
| 2026-05-07 17:53 | 51.57070 | 12.19452 | 9412 ft | 271 kts | 266° |
| 2026-05-07 17:53 | 51.56778 | 12.16368 | 10004 ft | 287 kts | 260° |
| 2026-05-07 17:54 | 51.56399 | 12.13143 | 10706 ft | 298 kts | 261° |
| 2026-05-07 17:54 | 51.56055 | 12.09802 | 11188 ft | 316 kts | 262° |
| 2026-05-07 17:54 | 51.55737 | 12.06185 | 11627 ft | 334 kts | 263° |
| 2026-05-07 17:54 | 51.55442 | 12.02416 | 12037 ft | 351 kts | 264° |
| 2026-05-07 17:55 | 51.55153 | 11.98461 | 12693 ft | 359 kts | 264° |
| 2026-05-07 17:55 | 51.54874 | 11.94505 | 13504 ft | 362 kts | 264° |
| 2026-05-07 17:55 | 51.54592 | 11.90423 | 14313 ft | 365 kts | 265° |
| 2026-05-07 17:55 | 51.54316 | 11.86384 | 15075 ft | 368 kts | 265° |
| 2026-05-07 17:56 | 51.54033 | 11.82269 | 15823 ft | 371 kts | 264° |
| 2026-05-07 17:56 | 51.53749 | 11.78135 | 16539 ft | 375 kts | 264° |
| 2026-05-07 17:56 | 51.53548 | 11.73986 | 17225 ft | 378 kts | 270° |
| 2026-05-07 17:56 | 51.53564 | 11.69753 | 17912 ft | 381 kts | 272° |
| 2026-05-07 17:57 | 51.53627 | 11.65466 | 18573 ft | 384 kts | 272° |
| 2026-05-07 17:57 | 51.53667 | 11.62628 | 18978 ft | 386 kts | 272° |
| 2026-05-07 17:57 | 51.53727 | 11.56852 | 19750 ft | 391 kts | 271° |
| 2026-05-07 17:57 | 51.53759 | 11.52458 | 20039 ft | 394 kts | 271° |
| 2026-05-07 17:58 | 51.53783 | 11.48099 | 20066 ft | 393 kts | 271° |
| 2026-05-07 17:58 | 51.53800 | 11.43731 | 20069 ft | 393 kts | 271° |
| 2026-05-07 17:58 | 51.53885 | 11.39327 | 20062 ft | 393 kts | 278° |
| 2026-05-07 17:58 | 51.54567 | 11.35121 | 20071 ft | 392 kts | 291° |
| 2026-05-07 17:59 | 51.55591 | 11.31031 | 20073 ft | 392 kts | 292° |
| 2026-05-07 17:59 | 51.56663 | 11.27030 | 20145 ft | 392 kts | 293° |
| 2026-05-07 17:59 | 51.57759 | 11.22995 | 20696 ft | 395 kts | 293° |
| 2026-05-07 17:59 | 51.58871 | 11.18911 | 21325 ft | 398 kts | 293° |
| 2026-05-07 18:00 | 51.59987 | 11.14824 | 21953 ft | 400 kts | 293° |
| 2026-05-07 18:00 | 51.61108 | 11.10726 | 22581 ft | 402 kts | 293° |
| 2026-05-07 18:00 | 51.62091 | 11.06564 | 23184 ft | 404 kts | 282° |
| 2026-05-07 18:00 | 51.62177 | 11.02087 | 23745 ft | 406 kts | 260° |
| 2026-05-07 18:01 | 51.61361 | 10.97656 | 23937 ft | 416 kts | 250° |
| 2026-05-07 18:01 | 51.60348 | 10.93288 | 24089 ft | 418 kts | 249° |
| 2026-05-07 18:01 | 51.59347 | 10.88905 | 24240 ft | 419 kts | 250° |
| 2026-05-07 18:01 | 51.58382 | 10.84508 | 24413 ft | 420 kts | 251° |
| 2026-05-07 18:02 | 51.56486 | 10.75557 | 24853 ft | 426 kts | 251° |
| 2026-05-07 18:02 | 51.55533 | 10.71003 | 25360 ft | 428 kts | 251° |
| 2026-05-07 18:02 | 51.54655 | 10.66459 | 25861 ft | 431 kts | 255° |
| 2026-05-07 18:03 | 51.54006 | 10.61746 | 26301 ft | 434 kts | 261° |
| 2026-05-07 18:03 | 51.53669 | 10.56889 | 26725 ft | 438 kts | 266° |
| 2026-05-07 18:03 | 51.53547 | 10.52042 | 27151 ft | 440 kts | 268° |
| 2026-05-07 18:03 | 51.53469 | 10.47111 | 27570 ft | 443 kts | 269° |
| 2026-05-07 18:04 | 51.53398 | 10.42120 | 28096 ft | 442 kts | 269° |
| 2026-05-07 18:04 | 51.53325 | 10.37209 | 28646 ft | 441 kts | 269° |
| 2026-05-07 18:04 | 51.53249 | 10.32345 | 29157 ft | 440 kts | 268° |
| 2026-05-07 18:04 | 51.53168 | 10.27440 | 29634 ft | 439 kts | 268° |
| 2026-05-07 18:05 | 51.53084 | 10.22570 | 30078 ft | 439 kts | 268° |
| 2026-05-07 18:05 | 51.52997 | 10.17664 | 30515 ft | 438 kts | 268° |
| 2026-05-07 18:05 | 51.52908 | 10.12757 | 30892 ft | 439 kts | 268° |
| 2026-05-07 18:05 | 51.52816 | 10.07878 | 31220 ft | 440 kts | 268° |
| 2026-05-07 18:06 | 51.52722 | 10.02945 | 31528 ft | 442 kts | 268° |
| 2026-05-07 18:06 | 51.52626 | 9.98049 | 31827 ft | 443 kts | 268° |
| 2026-05-07 18:06 | 51.52526 | 9.93074 | 32056 ft | 445 kts | 268° |
| 2026-05-07 18:07 | 51.52320 | 9.83141 | 32072 ft | 446 kts | 268° |
| 2026-05-07 18:07 | 51.52105 | 9.73175 | 32074 ft | 446 kts | 268° |
| 2026-05-07 18:08 | 51.51883 | 9.63279 | 32073 ft | 446 kts | 268° |
| 2026-05-07 18:08 | 51.51650 | 9.53295 | 32073 ft | 446 kts | 268° |
| 2026-05-07 18:09 | 51.51411 | 9.43395 | 32072 ft | 446 kts | 268° |
| 2026-05-07 18:09 | 51.51163 | 9.33483 | 32073 ft | 446 kts | 268° |
| 2026-05-07 18:10 | 51.50905 | 9.23505 | 32073 ft | 446 kts | 268° |
| 2026-05-07 18:10 | 51.50639 | 9.13610 | 32073 ft | 445 kts | 268° |
| 2026-05-07 18:11 | 51.50320 | 9.03697 | 32073 ft | 445 kts | 267° |
| 2026-05-07 18:11 | 51.49945 | 8.93796 | 32073 ft | 445 kts | 267° |
| 2026-05-07 18:12 | 51.49562 | 8.83877 | 32073 ft | 445 kts | 267° |
| 2026-05-07 18:12 | 51.49173 | 8.73952 | 31911 ft | 446 kts | 267° |
| 2026-05-07 18:12 | 51.48977 | 8.69008 | 31661 ft | 443 kts | 267° |
| 2026-05-07 18:13 | 51.48781 | 8.64111 | 31411 ft | 440 kts | 267° |
| 2026-05-07 18:13 | 51.48584 | 8.59242 | 31162 ft | 437 kts | 266° |
| 2026-05-07 18:13 | 51.48386 | 8.54388 | 30911 ft | 435 kts | 266° |
| 2026-05-07 18:13 | 51.48188 | 8.49593 | 30663 ft | 435 kts | 266° |
| 2026-05-07 18:14 | 51.47985 | 8.44738 | 30413 ft | 435 kts | 266° |
| 2026-05-07 18:14 | 51.47782 | 8.39911 | 30163 ft | 435 kts | 266° |
| 2026-05-07 18:14 | 51.47575 | 8.35030 | 29912 ft | 436 kts | 266° |
| 2026-05-07 18:14 | 51.47366 | 8.30180 | 29662 ft | 436 kts | 266° |
| 2026-05-07 18:15 | 51.47155 | 8.25325 | 29412 ft | 437 kts | 265° |
| 2026-05-07 18:15 | 51.46943 | 8.20471 | 29162 ft | 437 kts | 265° |
| 2026-05-07 18:15 | 51.46727 | 8.15611 | 28912 ft | 437 kts | 265° |
| 2026-05-07 18:15 | 51.46189 | 8.10838 | 28644 ft | 437 kts | 252° |
| 2026-05-07 18:16 | 51.45159 | 8.06323 | 28406 ft | 437 kts | 249° |
| 2026-05-07 18:16 | 51.44041 | 8.01771 | 28156 ft | 437 kts | 249° |
| 2026-05-07 18:16 | 51.42922 | 7.97208 | 27904 ft | 437 kts | 249° |
| 2026-05-07 18:16 | 51.41835 | 7.92719 | 27656 ft | 437 kts | 249° |
| 2026-05-07 18:17 | 51.40738 | 7.88138 | 27405 ft | 438 kts | 249° |
| 2026-05-07 18:17 | 51.39661 | 7.83617 | 27156 ft | 436 kts | 249° |
| 2026-05-07 18:17 | 51.38584 | 7.79078 | 26904 ft | 434 kts | 249° |
| 2026-05-07 18:17 | 51.37515 | 7.74567 | 26714 ft | 433 kts | 250° |
| 2026-05-07 18:18 | 51.36461 | 7.70119 | 26540 ft | 431 kts | 250° |
| 2026-05-07 18:18 | 51.35395 | 7.65629 | 26365 ft | 430 kts | 250° |
| 2026-05-07 18:18 | 51.34336 | 7.61171 | 26190 ft | 429 kts | 250° |
| 2026-05-07 18:18 | 51.33280 | 7.56735 | 26017 ft | 428 kts | 250° |
| 2026-05-07 18:19 | 51.32221 | 7.52293 | 25841 ft | 426 kts | 250° |
| 2026-05-07 18:19 | 51.31312 | 7.47794 | 25665 ft | 424 kts | 254° |
| 2026-05-07 18:19 | 51.30542 | 7.43313 | 25493 ft | 423 kts | 255° |
| 2026-05-07 18:19 | 51.29773 | 7.38725 | 25316 ft | 422 kts | 255° |
| 2026-05-07 18:20 | 51.29015 | 7.34246 | 25144 ft | 420 kts | 254° |
| 2026-05-07 18:20 | 51.28242 | 7.29755 | 24969 ft | 419 kts | 254° |
| 2026-05-07 18:20 | 51.27456 | 7.25244 | 24792 ft | 418 kts | 254° |
| 2026-05-07 18:20 | 51.26676 | 7.20806 | 24509 ft | 416 kts | 254° |
| 2026-05-07 18:21 | 51.25891 | 7.16371 | 24182 ft | 414 kts | 254° |
| 2026-05-07 18:21 | 51.25118 | 7.12023 | 23860 ft | 412 kts | 254° |
| 2026-05-07 18:21 | 51.24334 | 7.07630 | 23534 ft | 410 kts | 254° |
| 2026-05-07 18:21 | 51.23558 | 7.03296 | 23209 ft | 408 kts | 254° |
| 2026-05-07 18:22 | 51.22774 | 6.98934 | 22882 ft | 406 kts | 254° |
| 2026-05-07 18:22 | 51.22522 | 6.97537 | 22776 ft | 405 kts | 254° |
| 2026-05-07 18:22 | 51.21222 | 6.90325 | 22230 ft | 402 kts | 254° |
| 2026-05-07 18:22 | 51.20452 | 6.86073 | 21907 ft | 400 kts | 254° |
| 2026-05-07 18:23 | 51.19678 | 6.81808 | 21580 ft | 398 kts | 254° |
| 2026-05-07 18:23 | 51.18910 | 6.77585 | 21255 ft | 396 kts | 254° |
| 2026-05-07 18:23 | 51.18142 | 6.73371 | 20928 ft | 394 kts | 254° |
| 2026-05-07 18:23 | 51.17380 | 6.69201 | 20604 ft | 393 kts | 254° |
| 2026-05-07 18:24 | 51.16614 | 6.65017 | 20278 ft | 391 kts | 254° |
| 2026-05-07 18:24 | 51.15857 | 6.60891 | 19954 ft | 389 kts | 254° |
| 2026-05-07 18:24 | 51.15103 | 6.56794 | 19631 ft | 387 kts | 254° |
| 2026-05-07 18:24 | 51.14341 | 6.52661 | 19304 ft | 385 kts | 254° |
| 2026-05-07 18:25 | 51.13588 | 6.48583 | 18979 ft | 383 kts | 254° |
| 2026-05-07 18:25 | 51.12830 | 6.44492 | 18651 ft | 382 kts | 254° |
| 2026-05-07 18:25 | 51.12089 | 6.40497 | 18330 ft | 381 kts | 254° |
| 2026-05-07 18:25 | 51.11339 | 6.36465 | 18005 ft | 379 kts | 254° |
| 2026-05-07 18:26 | 51.10595 | 6.32470 | 17681 ft | 377 kts | 253° |
| 2026-05-07 18:26 | 51.09846 | 6.28467 | 17354 ft | 375 kts | 253° |
| 2026-05-07 18:26 | 51.09107 | 6.24515 | 17029 ft | 373 kts | 253° |
| 2026-05-07 18:26 | 51.08365 | 6.20560 | 16702 ft | 372 kts | 253° |
| 2026-05-07 18:27 | 51.07628 | 6.16637 | 16377 ft | 370 kts | 253° |
| 2026-05-07 18:27 | 51.06886 | 6.12700 | 16093 ft | 368 kts | 253° |
| 2026-05-07 18:27 | 51.06153 | 6.08816 | 16051 ft | 368 kts | 253° |
| 2026-05-07 18:27 | 51.05661 | 6.06217 | 16049 ft | 369 kts | 253° |
| 2026-05-07 18:28 | 51.04668 | 6.00975 | 16048 ft | 369 kts | 253° |
| 2026-05-07 18:28 | 51.03927 | 5.97068 | 16047 ft | 369 kts | 253° |
| 2026-05-07 18:28 | 51.03190 | 5.93198 | 16047 ft | 369 kts | 253° |
| 2026-05-07 18:28 | 51.02441 | 5.89273 | 16049 ft | 369 kts | 253° |
| 2026-05-07 18:29 | 51.01697 | 5.85379 | 16043 ft | 369 kts | 253° |
| 2026-05-07 18:29 | 51.00956 | 5.81509 | 15747 ft | 367 kts | 253° |
| 2026-05-07 18:29 | 51.00207 | 5.77611 | 15420 ft | 365 kts | 253° |
| 2026-05-07 18:29 | 50.99474 | 5.73808 | 15098 ft | 364 kts | 253° |
| 2026-05-07 18:30 | 50.98733 | 5.69967 | 14772 ft | 363 kts | 253° |
| 2026-05-07 18:30 | 50.97998 | 5.66157 | 14447 ft | 361 kts | 253° |
| 2026-05-07 18:30 | 50.97268 | 5.62373 | 14124 ft | 360 kts | 253° |
| 2026-05-07 18:30 | 50.96535 | 5.58589 | 13798 ft | 358 kts | 253° |
| 2026-05-07 18:31 | 50.95817 | 5.54892 | 13474 ft | 349 kts | 253° |
| 2026-05-07 18:31 | 50.95108 | 5.51248 | 13150 ft | 335 kts | 253° |
| 2026-05-07 18:31 | 50.94451 | 5.47881 | 12830 ft | 311 kts | 253° |
| 2026-05-07 18:31 | 50.93836 | 5.44731 | 12501 ft | 290 kts | 253° |
| 2026-05-07 18:32 | 50.93254 | 5.41760 | 12168 ft | 272 kts | 253° |
| 2026-05-07 18:32 | 50.92711 | 5.38987 | 11839 ft | 258 kts | 253° |
| 2026-05-07 18:32 | 50.92187 | 5.36319 | 11515 ft | 254 kts | 253° |
| 2026-05-07 18:32 | 50.91656 | 5.33626 | 11187 ft | 254 kts | 252° |
| 2026-05-07 18:33 | 50.91139 | 5.30961 | 10861 ft | 253 kts | 252° |
| 2026-05-07 18:33 | 50.90620 | 5.28307 | 10536 ft | 253 kts | 252° |
| 2026-05-07 18:33 | 50.90093 | 5.25646 | 10209 ft | 253 kts | 252° |
| 2026-05-07 18:33 | 50.89569 | 5.23013 | 9886 ft | 252 kts | 252° |
| 2026-05-07 18:34 | 50.89040 | 5.20354 | 9558 ft | 252 kts | 252° |
| 2026-05-07 18:34 | 50.88738 | 5.17670 | 9219 ft | 251 kts | 274° |
| 2026-05-07 18:34 | 50.89265 | 5.15035 | 8891 ft | 251 kts | 302° |
| 2026-05-07 18:34 | 50.90300 | 5.12812 | 8573 ft | 251 kts | 310° |
| 2026-05-07 18:35 | 50.91418 | 5.10743 | 8251 ft | 249 kts | 311° |
| 2026-05-07 18:35 | 50.92553 | 5.08692 | 7875 ft | 248 kts | 311° |
| 2026-05-07 18:35 | 50.93688 | 5.06648 | 7475 ft | 247 kts | 311° |
| 2026-05-07 18:35 | 50.94815 | 5.04616 | 7034 ft | 245 kts | 311° |
| 2026-05-07 18:36 | 50.95940 | 5.02584 | 6555 ft | 243 kts | 312° |
| 2026-05-07 18:36 | 50.97044 | 5.00581 | 6161 ft | 241 kts | 311° |
| 2026-05-07 18:36 | 50.98156 | 4.98559 | 6075 ft | 242 kts | 311° |
| 2026-05-07 18:36 | 50.99251 | 4.96567 | 6073 ft | 242 kts | 311° |
| 2026-05-07 18:37 | 51.00369 | 4.94534 | 6032 ft | 243 kts | 311° |
| 2026-05-07 18:37 | 51.01461 | 4.92535 | 5745 ft | 242 kts | 308° |
| 2026-05-07 18:37 | 51.02130 | 4.90110 | 5413 ft | 239 kts | 276° |
| 2026-05-07 18:37 | 51.01966 | 4.87631 | 5125 ft | 218 kts | 251° |
| 2026-05-07 18:38 | 51.01459 | 4.85494 | 4863 ft | 201 kts | 247° |
| 2026-05-07 18:38 | 51.00915 | 4.83472 | 4617 ft | 197 kts | 246° |
| 2026-05-07 18:38 | 51.00359 | 4.81504 | 4380 ft | 197 kts | 245° |
| 2026-05-07 18:38 | 50.99784 | 4.79522 | 4135 ft | 196 kts | 245° |
| 2026-05-07 18:39 | 50.99209 | 4.77558 | 3883 ft | 196 kts | 245° |
| 2026-05-07 18:39 | 50.98638 | 4.75616 | 3634 ft | 196 kts | 245° |
| 2026-05-07 18:39 | 50.98066 | 4.73670 | 3384 ft | 195 kts | 245° |
| 2026-05-07 18:39 | 50.97496 | 4.71724 | 3126 ft | 195 kts | 245° |
| 2026-05-07 18:40 | 50.96923 | 4.69771 | 2863 ft | 193 kts | 245° |
| 2026-05-07 18:40 | 50.96373 | 4.67886 | 2660 ft | 177 kts | 245° |
| 2026-05-07 18:40 | 50.95883 | 4.66208 | 2454 ft | 164 kts | 245° |
| 2026-05-07 18:40 | 50.95413 | 4.64593 | 2206 ft | 161 kts | 245° |
| 2026-05-07 18:41 | 50.94939 | 4.62968 | 1970 ft | 159 kts | 245° |
| 2026-05-07 18:41 | 50.94500 | 4.61458 | 1733 ft | 147 kts | 245° |
| 2026-05-07 18:41 | 50.94083 | 4.60024 | 1519 ft | 139 kts | 246° |
| 2026-05-07 18:41 | 50.93682 | 4.58649 | 1356 ft | 137 kts | 246° |
| 2026-05-07 18:42 | 50.93285 | 4.57279 | 1188 ft | 136 kts | 246° |
| 2026-05-07 18:42 | 50.92887 | 4.55911 | 1015 ft | 136 kts | 246° |
| 2026-05-07 18:42 | 50.92494 | 4.54556 | 837 ft | 135 kts | 246° |
| 2026-05-07 18:42 | 50.92104 | 4.53210 | 656 ft | 135 kts | 246° |
| 2026-05-07 18:43 | 50.91710 | 4.51852 | 471 ft | 135 kts | 246° |
| 2026-05-07 18:43 | 50.91323 | 4.50516 | 304 ft | 134 kts | 246° |
| 2026-05-07 18:43 | 50.90926 | 4.49168 | 193 ft | 133 kts | 246° |
| 2026-05-07 18:43 | 50.90606 | 4.48040 | 193 ft | 88 kts | 247° |
| 2026-05-07 18:44 | 50.90400 | 4.47333 | 193 ft | 62 kts | 245° |
| 2026-05-07 18:44 | 50.90270 | 4.46919 | 193 ft | 34 kts | 235° |
| 2026-05-07 18:44 | 50.90102 | 4.46690 | 193 ft | 14 kts | 213° |
| 2026-05-07 18:44 | 50.90053 | 4.46648 | 193 ft | 6 kts | 171° |
| 2026-05-07 18:45 | 50.90042 | 4.46704 | 193 ft | 5 kts | 77° |
| 2026-05-07 18:45 | 50.90056 | 4.46765 | 193 ft | 6 kts | 68° |
| 2026-05-07 18:45 | 50.90077 | 4.46836 | 193 ft | 7 kts | 61° |
| 2026-05-07 18:45 | 50.90102 | 4.46914 | 193 ft | 8 kts | 65° |
| 2026-05-07 18:46 | 50.90130 | 4.47005 | 193 ft | 9 kts | 65° |
| 2026-05-07 18:46 | 50.90158 | 4.47110 | 193 ft | 10 kts | 69° |
| 2026-05-07 18:46 | 50.90186 | 4.47222 | 193 ft | 11 kts | 65° |
| 2026-05-07 18:46 | 50.90222 | 4.47339 | 193 ft | 12 kts | 66° |
| 2026-05-07 18:47 | 50.90207 | 4.47427 | 193 ft | 6 kts | 130° |
| 2026-05-07 18:47 | 50.90192 | 4.47500 | 193 ft | 7 kts | 77° |
| 2026-05-07 18:47 | 50.90212 | 4.47577 | 193 ft | 6 kts | 66° |
| 2026-05-07 18:47 | 50.90233 | 4.47649 | 193 ft | 7 kts | 66° |
| 2026-05-07 18:48 | 50.90264 | 4.47758 | 193 ft | 13 kts | 65° |
| 2026-05-07 18:48 | 50.90300 | 4.47878 | 193 ft | 5 kts | 65° |
| 2026-05-07 18:48 | 50.90324 | 4.47962 | 193 ft | 11 kts | 65° |
| 2026-05-07 18:48 | 50.90353 | 4.48060 | 193 ft | 9 kts | 65° |
| 2026-05-07 18:49 | 50.90371 | 4.48140 | 193 ft | 3 kts | 103° |
| 2026-05-07 18:49 | 50.90355 | 4.48161 | 193 ft | 2 kts | 154° |
| 2026-05-07 18:49 | 50.90334 | 4.48177 | 193 ft | 4 kts | 155° |
| 2026-05-07 18:49 | 50.90306 | 4.48197 | 193 ft | 3 kts | 156° |
| 2026-05-07 18:50 | 50.90297 | 4.48203 | 193 ft | 0 kts | 156° |
| 2026-05-07 18:50 | 50.90297 | 4.48204 | 193 ft | 0 kts | 156° |